Time;durP1;ratioP1;P1;durP2;ratioP2;P2;SDS_P1;SDS_P2;PMS_P1;PMS_P2;Temp;Humidity;BMP_temperature;BMP_pressure;BME280_temperature;BME280_humidity;BME280_pressure;Samples;Min_cycle;Max_cycle;Signal;HPM_P1;HPM_P2
2023/03/20 00:00:28;;;;;;;20.70;15.98;;;;;;;;;;4966762;28;20038;-65
2023/03/20 00:02:54;;;;;;;22.00;15.40;;;;;;;;;;4967981;28;20039;-67
2023/03/20 00:05:22;;;;;;;24.77;15.20;;;;;;;;;;4969100;28;20084;-64
2023/03/20 00:07:48;;;;;;;20.80;15.02;;;;;;;;;;4967981;28;20046;-65
2023/03/20 00:10:16;;;;;;;18.85;14.55;;;;;;;;;;4968038;28;20052;-65
2023/03/20 00:12:42;;;;;;;17.70;14.45;;;;;;;;;;4966870;28;20041;-66
2023/03/20 00:15:27;;;;;;;18.48;14.90;;;;;;;;;;4968654;28;20038;-66
2023/03/20 00:17:54;;;;;;;20.20;14.60;;;;;;;;;;4966091;28;20053;-65
2023/03/20 00:20:20;;;;;;;15.73;12.93;;;;;;;;;;4969653;28;20070;-65
2023/03/20 00:22:46;;;;;;;15.07;12.70;;;;;;;;;;4969353;28;20633;-67
2023/03/20 00:25:16;;;;;;;12.63;10.05;;;;;;;;;;4967344;28;20037;-66
2023/03/20 00:27:43;;;;;;;8.95;8.05;;;;;;;;;;4970337;28;20098;-67
2023/03/20 00:30:19;;;;;;;8.90;8.02;;;;;;;;;;4973850;28;20039;-66
2023/03/20 00:32:46;;;;;;;7.97;7.18;;;;;;;;;;4985656;28;20085;-66
2023/03/20 00:35:21;;;;;;;7.75;6.93;;;;;;;;;;4970482;28;20038;-66
2023/03/20 00:37:47;;;;;;;7.50;6.43;;;;;;;;;;4971490;28;20097;-66
2023/03/20 00:40:13;;;;;;;9.05;6.47;;;;;;;;;;4971452;28;20035;-66
2023/03/20 00:42:42;;;;;;;7.10;6.40;;;;;;;;;;4970776;28;20049;-66
2023/03/20 00:45:13;;;;;;;6.82;6.13;;;;;;;;;;4972261;28;20034;-66
2023/03/20 00:47:40;;;;;;;6.95;5.80;;;;;;;;;;4970571;28;20035;-66
2023/03/20 00:50:20;;;;;;;6.10;5.50;;;;;;;;;;4967601;28;20114;-66
2023/03/20 00:52:47;;;;;;;6.05;5.20;;;;;;;;;;4970291;28;20031;-66
2023/03/20 00:55:13;;;;;;;6.13;5.63;;;;;;;;;;4973168;28;20041;-66
2023/03/20 00:57:42;;;;;;;5.40;4.95;;;;;;;;;;4971705;28;20042;-66
2023/03/20 01:00:26;;;;;;;6.07;5.57;;;;;;;;;;4968492;28;20038;-66
2023/03/20 01:02:54;;;;;;;6.03;5.50;;;;;;;;;;4970045;28;20038;-66
2023/03/20 01:05:24;;;;;;;5.75;5.15;;;;;;;;;;4970545;28;20037;-66
2023/03/20 01:07:52;;;;;;;5.78;5.25;;;;;;;;;;4971255;28;20039;-66
2023/03/20 01:10:18;;;;;;;5.85;4.85;;;;;;;;;;4967592;28;20045;-66
2023/03/20 01:12:45;;;;;;;5.95;5.10;;;;;;;;;;4971109;28;20038;-66
2023/03/20 01:15:16;;;;;;;5.13;4.63;;;;;;;;;;4971954;28;20401;-66
2023/03/20 01:17:42;;;;;;;5.43;5.00;;;;;;;;;;4969901;28;20069;-66
2023/03/20 01:20:14;;;;;;;5.20;4.80;;;;;;;;;;4969719;28;20063;-66
2023/03/20 01:22:40;;;;;;;5.50;4.93;;;;;;;;;;4973987;28;20043;-66
2023/03/20 01:25:06;;;;;;;6.60;4.95;;;;;;;;;;4970687;28;20031;-66
2023/03/20 01:27:32;;;;;;;5.38;4.65;;;;;;;;;;4970320;28;20117;-66
2023/03/20 01:29:57;;;;;;;5.07;4.68;;;;;;;;;;4970775;28;20060;-66
2023/03/20 01:32:24;;;;;;;5.85;5.25;;;;;;;;;;4972170;28;20771;-66
2023/03/20 01:34:51;;;;;;;4.90;4.40;;;;;;;;;;4966801;28;20037;-66
2023/03/20 01:37:23;;;;;;;5.10;4.70;;;;;;;;;;4969501;28;20106;-66
2023/03/20 01:39:50;;;;;;;6.47;4.80;;;;;;;;;;4970951;28;20454;-66
2023/03/20 01:42:16;;;;;;;5.72;4.85;;;;;;;;;;4969704;28;20030;-66
2023/03/20 01:44:42;;;;;;;5.38;4.88;;;;;;;;;;4968250;28;20491;-66
2023/03/20 01:47:16;;;;;;;5.32;4.82;;;;;;;;;;4970079;28;20038;-66
2023/03/20 01:50:16;;;;;;;5.75;5.25;;;;;;;;;;4986727;28;20038;-66
2023/03/20 01:52:42;;;;;;;5.57;5.07;;;;;;;;;;4982210;28;20358;-66
2023/03/20 01:55:08;;;;;;;5.82;5.03;;;;;;;;;;4969520;28;20034;-66
2023/03/20 01:57:36;;;;;;;5.45;4.95;;;;;;;;;;4985714;28;20070;-67
2023/03/20 02:00:20;;;;;;;5.05;4.55;;;;;;;;;;4969831;28;20442;-67
2023/03/20 02:02:47;;;;;;;6.22;4.78;;;;;;;;;;4983823;28;20101;-66
2023/03/20 02:05:30;;;;;;;5.38;4.97;;;;;;;;;;4969906;28;20043;-66
2023/03/20 02:08:18;;;;;;;5.72;5.22;;;;;;;;;;4969280;28;20042;-64
2023/03/20 02:10:46;;;;;;;5.57;5.07;;;;;;;;;;4966407;28;20574;-67
2023/03/20 02:13:20;;;;;;;5.40;4.90;;;;;;;;;;4969492;28;20046;-67
2023/03/20 02:15:55;;;;;;;5.00;4.60;;;;;;;;;;4970451;28;20154;-67
2023/03/20 02:18:36;;;;;;;4.95;4.55;;;;;;;;;;4969397;28;20100;-67
2023/03/20 02:21:27;;;;;;;6.57;5.47;;;;;;;;;;4972448;28;20031;-66
2023/03/20 02:24:44;;;;;;;7.15;5.43;;;;;;;;;;4969769;28;20066;-66
2023/03/20 02:27:14;;;;;;;5.65;4.88;;;;;;;;;;4965081;28;20046;-66
2023/03/20 02:29:54;;;;;;;6.18;5.13;;;;;;;;;;4949596;28;20038;-65
2023/03/20 02:32:51;;;;;;;5.57;5.07;;;;;;;;;;4952012;28;20062;-66
2023/03/20 02:35:36;;;;;;;5.30;4.80;;;;;;;;;;4942036;28;20039;-66
2023/03/20 02:38:16;;;;;;;5.32;4.82;;;;;;;;;;4965019;28;20043;-66
2023/03/20 02:41:02;;;;;;;5.60;5.10;;;;;;;;;;4968097;28;20644;-66
2023/03/20 02:43:43;;;;;;;5.72;5.18;;;;;;;;;;4945087;28;20051;-67
2023/03/20 02:46:41;;;;;;;5.75;5.18;;;;;;;;;;4946608;28;20645;-66
2023/03/20 02:49:23;;;;;;;5.90;5.00;;;;;;;;;;4959707;28;20134;-67
2023/03/20 02:52:09;;;;;;;5.15;4.63;;;;;;;;;;4962831;28;20149;-67
2023/03/20 02:54:48;;;;;;;4.80;4.40;;;;;;;;;;4945491;28;20046;-67
2023/03/20 02:57:39;;;;;;;5.03;4.63;;;;;;;;;;4966550;28;20035;-67
2023/03/20 03:00:16;;;;;;;5.05;4.55;;;;;;;;;;4969203;28;20038;-66
2023/03/20 03:02:49;;;;;;;4.30;4.00;;;;;;;;;;4984166;28;20057;-66
2023/03/20 03:05:24;;;;;;;4.00;3.70;;;;;;;;;;4970691;28;20042;-66
2023/03/20 03:07:54;;;;;;;3.80;3.60;;;;;;;;;;4968458;28;20089;-67
2023/03/20 03:10:26;;;;;;;3.72;3.53;;;;;;;;;;4968789;28;20042;-66
2023/03/20 03:12:55;;;;;;;3.60;3.30;;;;;;;;;;4969043;28;20038;-66
2023/03/20 03:15:29;;;;;;;3.45;3.25;;;;;;;;;;4966565;28;21630;-67
2023/03/20 03:17:57;;;;;;;3.83;3.13;;;;;;;;;;4968508;28;20112;-67
2023/03/20 03:20:33;;;;;;;3.60;3.40;;;;;;;;;;4969637;28;20049;-64
2023/03/20 03:23:00;;;;;;;3.40;3.20;;;;;;;;;;4965742;28;20054;-67
2023/03/20 03:25:31;;;;;;;3.45;3.25;;;;;;;;;;4986420;28;20408;-67
2023/03/20 03:28:26;;;;;;;3.45;3.20;;;;;;;;;;4987372;28;20035;-64
2023/03/20 03:30:54;;;;;;;3.53;3.28;;;;;;;;;;4967651;28;20134;-64
2023/03/20 03:33:26;;;;;;;3.30;3.10;;;;;;;;;;4965938;28;20037;-67
2023/03/20 03:36:07;;;;;;;3.28;3.13;;;;;;;;;;4969703;28;20019;-66
2023/03/20 03:38:43;;;;;;;3.60;3.40;;;;;;;;;;4967629;28;20031;-67
2023/03/20 03:41:21;;;;;;;4.22;3.92;;;;;;;;;;4978079;28;20034;-66
2023/03/20 03:44:02;;;;;;;3.50;3.30;;;;;;;;;;4969541;28;20558;-66
2023/03/20 03:46:41;;;;;;;3.67;3.38;;;;;;;;;;4966555;28;20517;-67
2023/03/20 03:49:10;;;;;;;3.75;3.45;;;;;;;;;;4966301;28;20040;-66
2023/03/20 03:51:38;;;;;;;3.40;3.10;;;;;;;;;;4967948;28;20069;-66
2023/03/20 03:54:13;;;;;;;3.63;3.30;;;;;;;;;;4967783;28;20478;-66
2023/03/20 03:56:43;;;;;;;3.15;3.00;;;;;;;;;;4967214;28;20023;-66
2023/03/20 03:59:19;;;;;;;3.55;3.10;;;;;;;;;;4965185;28;20062;-66
2023/03/20 04:01:46;;;;;;;3.70;3.40;;;;;;;;;;4966808;28;20514;-66
2023/03/20 04:04:14;;;;;;;3.70;3.47;;;;;;;;;;4967694;28;20027;-66
2023/03/20 04:06:41;;;;;;;3.78;3.58;;;;;;;;;;4967551;28;20041;-66
2023/03/20 04:09:07;;;;;;;4.65;4.25;;;;;;;;;;4966953;28;20042;-66
2023/03/20 04:11:34;;;;;;;3.60;3.40;;;;;;;;;;4969182;28;20758;-66
2023/03/20 04:14:01;;;;;;;5.03;3.50;;;;;;;;;;4967934;28;20038;-66
2023/03/20 04:16:26;;;;;;;4.22;3.70;;;;;;;;;;4967403;28;20486;-66
2023/03/20 04:18:54;;;;;;;3.88;3.65;;;;;;;;;;4966769;28;20479;-66
2023/03/20 04:21:20;;;;;;;4.03;3.72;;;;;;;;;;4970118;28;20027;-66
2023/03/20 04:23:47;;;;;;;3.92;3.63;;;;;;;;;;4970405;28;20392;-66
2023/03/20 04:26:13;;;;;;;4.35;3.97;;;;;;;;;;4964422;28;20444;-66
2023/03/20 04:28:39;;;;;;;4.88;3.95;;;;;;;;;;4966692;28;20061;-66
2023/03/20 04:31:21;;;;;;;4.75;4.35;;;;;;;;;;4969875;28;20077;-66
2023/03/20 04:33:55;;;;;;;5.03;4.63;;;;;;;;;;4964346;28;20506;-66
2023/03/20 04:36:43;;;;;;;5.35;4.40;;;;;;;;;;4968446;28;20515;-66
2023/03/20 04:39:11;;;;;;;4.10;3.80;;;;;;;;;;4949944;28;20043;-66
2023/03/20 04:41:36;;;;;;;4.00;3.70;;;;;;;;;;4966724;28;20042;-66
2023/03/20 04:44:02;;;;;;;3.95;3.65;;;;;;;;;;4966804;28;20236;-66
2023/03/20 04:46:30;;;;;;;3.72;3.50;;;;;;;;;;4967528;28;20073;-66
2023/03/20 04:48:57;;;;;;;3.80;3.55;;;;;;;;;;4967999;28;20134;-66
2023/03/20 04:51:27;;;;;;;4.78;4.32;;;;;;;;;;4985260;28;20043;-66
2023/03/20 04:53:53;;;;;;;5.05;4.65;;;;;;;;;;4967060;28;20128;-66
2023/03/20 04:56:18;;;;;;;3.92;3.70;;;;;;;;;;4967608;28;20031;-66
2023/03/20 04:58:45;;;;;;;4.30;3.60;;;;;;;;;;4966426;28;20038;-66
2023/03/20 05:01:10;;;;;;;4.15;3.85;;;;;;;;;;4966257;28;20372;-66
2023/03/20 05:03:36;;;;;;;4.63;4.20;;;;;;;;;;4966966;28;20043;-66
2023/03/20 05:06:02;;;;;;;9.02;5.93;;;;;;;;;;4968442;28;20047;-66
2023/03/20 05:08:27;;;;;;;14.40;8.40;;;;;;;;;;4984105;28;20035;-66
2023/03/20 05:10:58;;;;;;;9.48;6.45;;;;;;;;;;4966452;28;20588;-66
2023/03/20 05:13:59;;;;;;;5.88;5.28;;;;;;;;;;4969333;28;20090;-66
2023/03/20 05:16:48;;;;;;;4.72;4.32;;;;;;;;;;4970149;28;20030;-66
2023/03/20 05:19:46;;;;;;;4.63;4.23;;;;;;;;;;4954976;28;20074;-66
2023/03/20 05:22:19;;;;;;;4.20;3.90;;;;;;;;;;4970028;28;20491;-66
2023/03/20 05:25:17;;;;;;;4.00;3.70;;;;;;;;;;4963052;28;20047;-66
2023/03/20 05:28:03;;;;;;;4.05;3.83;;;;;;;;;;4968738;28;20038;-66
2023/03/20 05:30:35;;;;;;;4.45;4.03;;;;;;;;;;4969948;28;20043;-66
2023/03/20 05:33:20;;;;;;;4.13;3.83;;;;;;;;;;4971799;28;20443;-66
2023/03/20 05:36:01;;;;;;;3.83;3.58;;;;;;;;;;4969663;28;20034;-66
2023/03/20 05:38:45;;;;;;;4.32;4.00;;;;;;;;;;4969075;28;20454;-66
2023/03/20 05:41:29;;;;;;;4.10;3.80;;;;;;;;;;4968193;28;20041;-66
2023/03/20 05:44:04;;;;;;;4.50;4.10;;;;;;;;;;4967494;28;20038;-66
2023/03/20 05:47:02;;;;;;;4.17;3.87;;;;;;;;;;4967887;28;20620;-66
2023/03/20 05:49:46;;;;;;;4.63;4.22;;;;;;;;;;4968444;28;20034;-67
2023/03/20 05:52:22;;;;;;;5.15;4.65;;;;;;;;;;4969134;28;20030;-66
2023/03/20 05:55:06;;;;;;;13.32;8.85;;;;;;;;;;4968259;28;20133;-66
2023/03/20 05:57:48;;;;;;;15.05;8.70;;;;;;;;;;4986572;28;20513;-64
2023/03/20 06:00:38;;;;;;;9.75;7.15;;;;;;;;;;4971294;28;20035;-66
2023/03/20 06:03:23;;;;;;;7.45;6.30;;;;;;;;;;4969265;28;20038;-66
2023/03/20 06:06:06;;;;;;;5.30;4.75;;;;;;;;;;4967400;28;20637;-64
2023/03/20 06:08:31;;;;;;;4.30;4.00;;;;;;;;;;4972728;28;20039;-68
2023/03/20 06:10:59;;;;;;;4.38;4.07;;;;;;;;;;4984200;28;20513;-67
2023/03/20 06:13:25;;;;;;;4.30;4.00;;;;;;;;;;4970300;28;20046;-66
2023/03/20 06:15:50;;;;;;;4.28;3.97;;;;;;;;;;4966960;28;20034;-66
2023/03/20 06:18:17;;;;;;;7.20;3.95;;;;;;;;;;4968855;28;20035;-67
2023/03/20 06:20:42;;;;;;;4.40;4.10;;;;;;;;;;4968806;28;20573;-67
2023/03/20 06:23:08;;;;;;;4.30;4.00;;;;;;;;;;4966800;28;20051;-66
2023/03/20 06:25:34;;;;;;;4.30;3.95;;;;;;;;;;4965177;28;20173;-67
2023/03/20 06:27:59;;;;;;;4.50;4.10;;;;;;;;;;4982364;28;20042;-67
2023/03/20 06:30:25;;;;;;;6.03;4.32;;;;;;;;;;4968275;28;20038;-66
2023/03/20 06:32:52;;;;;;;4.60;4.20;;;;;;;;;;4968445;28;20471;-66
2023/03/20 06:35:19;;;;;;;4.10;3.80;;;;;;;;;;4968630;28;20067;-66
2023/03/20 06:37:47;;;;;;;4.65;3.70;;;;;;;;;;4966420;28;20038;-67
2023/03/20 06:40:20;;;;;;;4.22;3.92;;;;;;;;;;4982358;28;20085;-66
2023/03/20 06:42:46;;;;;;;3.88;3.65;;;;;;;;;;4967853;28;20462;-65
2023/03/20 06:45:12;;;;;;;4.40;4.00;;;;;;;;;;4967851;28;20593;-65
2023/03/20 06:47:50;;;;;;;5.77;4.30;;;;;;;;;;4967716;28;20050;-67
2023/03/20 06:50:16;;;;;;;4.55;4.15;;;;;;;;;;4984164;28;20398;-66
2023/03/20 06:52:42;;;;;;;4.45;4.13;;;;;;;;;;4968134;28;20414;-66
2023/03/20 06:55:26;;;;;;;5.07;4.68;;;;;;;;;;4966769;28;20069;-67
2023/03/20 06:57:52;;;;;;;4.90;4.50;;;;;;;;;;4984725;28;20101;-67
2023/03/20 07:00:19;;;;;;;4.90;4.40;;;;;;;;;;4970239;28;20046;-67
2023/03/20 07:02:44;;;;;;;4.60;4.10;;;;;;;;;;4968327;28;20043;-67
2023/03/20 07:05:14;;;;;;;4.22;3.95;;;;;;;;;;4984854;28;20034;-64
2023/03/20 07:07:40;;;;;;;4.43;4.00;;;;;;;;;;4970984;28;20034;-65
2023/03/20 07:10:06;;;;;;;4.07;3.80;;;;;;;;;;4967579;28;20042;-65
2023/03/20 07:12:32;;;;;;;4.32;4.03;;;;;;;;;;4970416;28;20026;-65
2023/03/20 07:15:00;;;;;;;4.35;3.90;;;;;;;;;;4967538;28;20060;-65
2023/03/20 07:17:26;;;;;;;4.20;3.90;;;;;;;;;;4984961;28;20042;-66
2023/03/20 07:19:52;;;;;;;4.07;3.78;;;;;;;;;;4968609;28;20042;-65
2023/03/20 07:22:24;;;;;;;3.90;3.60;;;;;;;;;;4966470;28;20033;-65
2023/03/20 07:24:51;;;;;;;3.90;3.70;;;;;;;;;;4970511;28;20039;-64
2023/03/20 07:27:20;;;;;;;4.20;3.90;;;;;;;;;;4967553;28;20391;-65
2023/03/20 07:29:45;;;;;;;4.10;3.80;;;;;;;;;;4967907;28;20026;-65
2023/03/20 07:32:15;;;;;;;4.10;3.80;;;;;;;;;;4958433;28;20041;-64
2023/03/20 07:34:49;;;;;;;4.30;3.90;;;;;;;;;;4968022;28;20500;-65
2023/03/20 07:37:16;;;;;;;3.80;3.60;;;;;;;;;;4967237;28;20076;-67
2023/03/20 07:39:49;;;;;;;3.97;3.72;;;;;;;;;;4983035;28;20182;-67
2023/03/20 07:42:37;;;;;;;3.78;3.58;;;;;;;;;;4965179;28;20062;-66
2023/03/20 07:45:13;;;;;;;4.18;3.78;;;;;;;;;;4983340;28;20046;-65
2023/03/20 07:47:41;;;;;;;4.13;3.83;;;;;;;;;;4984785;28;20089;-64
2023/03/20 07:50:07;;;;;;;4.07;3.78;;;;;;;;;;4968376;28;20030;-65
2023/03/20 07:52:32;;;;;;;4.10;3.78;;;;;;;;;;4968354;28;20030;-65
2023/03/20 07:54:58;;;;;;;7.45;4.00;;;;;;;;;;4968678;28;20047;-65
2023/03/20 07:57:24;;;;;;;3.90;3.60;;;;;;;;;;4968198;28;20027;-65
2023/03/20 07:59:49;;;;;;;4.15;3.80;;;;;;;;;;4964135;28;20124;-66
2023/03/20 08:02:17;;;;;;;4.25;3.95;;;;;;;;;;4971373;28;20387;-65
2023/03/20 08:04:43;;;;;;;3.97;3.67;;;;;;;;;;4968604;28;20223;-67
2023/03/20 08:07:09;;;;;;;4.75;4.00;;;;;;;;;;4966211;28;20034;-67
2023/03/20 08:09:35;;;;;;;4.40;3.63;;;;;;;;;;4969158;28;20369;-65
2023/03/20 08:12:02;;;;;;;4.40;4.00;;;;;;;;;;4969555;28;20094;-65
2023/03/20 08:14:27;;;;;;;4.25;3.95;;;;;;;;;;4968048;28;20383;-65
2023/03/20 08:16:53;;;;;;;4.60;4.20;;;;;;;;;;4981350;28;20116;-65
2023/03/20 08:19:18;;;;;;;4.25;3.85;;;;;;;;;;4967537;28;20058;-64
2023/03/20 08:21:44;;;;;;;4.55;3.80;;;;;;;;;;4968271;28;20034;-65
2023/03/20 08:24:10;;;;;;;3.90;3.60;;;;;;;;;;4968237;28;20042;-65
2023/03/20 08:26:35;;;;;;;3.75;3.53;;;;;;;;;;4963857;28;20043;-65
2023/03/20 08:29:01;;;;;;;3.70;3.50;;;;;;;;;;4968868;28;20038;-65
2023/03/20 08:31:27;;;;;;;3.80;3.53;;;;;;;;;;4968084;28;20402;-67
2023/03/20 08:33:54;;;;;;;4.72;3.60;;;;;;;;;;4968803;28;20039;-67
2023/03/20 08:36:20;;;;;;;4.22;3.60;;;;;;;;;;4966249;28;20106;-65
2023/03/20 08:38:47;;;;;;;3.80;3.60;;;;;;;;;;4969775;28;20129;-65
2023/03/20 08:41:13;;;;;;;4.07;3.78;;;;;;;;;;4966202;28;20051;-65
2023/03/20 08:43:38;;;;;;;3.80;3.60;;;;;;;;;;4968899;28;20031;-64
2023/03/20 08:46:05;;;;;;;4.32;3.65;;;;;;;;;;4967569;28;20040;-67
2023/03/20 08:48:31;;;;;;;3.60;3.40;;;;;;;;;;4966884;28;20411;-66
2023/03/20 08:50:56;;;;;;;3.58;3.38;;;;;;;;;;4971292;28;20334;-67
2023/03/20 08:53:22;;;;;;;4.13;3.80;;;;;;;;;;4971782;28;20121;-65
2023/03/20 08:55:49;;;;;;;3.90;3.70;;;;;;;;;;4971295;28;20038;-65
2023/03/20 08:58:15;;;;;;;3.30;3.00;;;;;;;;;;4970269;28;20042;-67
2023/03/20 09:00:41;;;;;;;3.63;3.42;;;;;;;;;;4971381;28;20027;-64
2023/03/20 09:03:15;;;;;;;3.70;3.50;;;;;;;;;;4971616;28;20439;-67
2023/03/20 09:05:45;;;;;;;3.90;3.70;;;;;;;;;;4970435;28;20121;-66
2023/03/20 09:08:11;;;;;;;3.67;3.38;;;;;;;;;;4970222;28;20088;-67
2023/03/20 09:10:37;;;;;;;3.65;3.45;;;;;;;;;;4971247;28;20046;-67
2023/03/20 09:13:03;;;;;;;3.92;3.72;;;;;;;;;;4969728;28;20326;-67
2023/03/20 09:15:28;;;;;;;4.25;3.83;;;;;;;;;;4972571;28;20035;-67
2023/03/20 09:17:54;;;;;;;4.20;3.88;;;;;;;;;;4971106;28;20125;-67
2023/03/20 09:20:20;;;;;;;3.80;3.50;;;;;;;;;;4977302;28;20030;-66
2023/03/20 09:22:45;;;;;;;3.80;3.60;;;;;;;;;;4978133;28;20039;-67
2023/03/20 09:25:12;;;;;;;3.78;3.58;;;;;;;;;;4977693;28;20498;-65
2023/03/20 09:27:38;;;;;;;4.03;3.83;;;;;;;;;;4972663;28;20538;-65
2023/03/20 09:30:06;;;;;;;4.05;3.83;;;;;;;;;;4970470;28;20061;-65
2023/03/20 09:32:33;;;;;;;4.10;3.80;;;;;;;;;;4989435;28;20050;-65
2023/03/20 09:35:00;;;;;;;3.92;3.60;;;;;;;;;;4976982;28;20394;-65
2023/03/20 09:37:25;;;;;;;3.67;3.47;;;;;;;;;;4971889;28;20074;-65
2023/03/20 09:39:51;;;;;;;3.90;3.70;;;;;;;;;;4970100;28;20030;-65
2023/03/20 09:42:41;;;;;;;3.70;3.50;;;;;;;;;;4971310;28;20034;-65
2023/03/20 09:45:40;;;;;;;3.88;3.67;;;;;;;;;;4969895;28;20034;-65
2023/03/20 09:48:22;;;;;;;3.90;3.70;;;;;;;;;;4967292;28;20027;-66
2023/03/20 09:50:57;;;;;;;3.97;3.78;;;;;;;;;;4969324;28;20121;-66
2023/03/20 09:53:38;;;;;;;3.60;3.40;;;;;;;;;;4969430;28;20031;-66
2023/03/20 09:56:08;;;;;;;4.28;3.97;;;;;;;;;;4968992;28;20038;-66
2023/03/20 09:58:36;;;;;;;3.90;3.60;;;;;;;;;;4970715;28;20413;-66
2023/03/20 10:01:05;;;;;;;4.03;3.70;;;;;;;;;;4969761;28;20486;-66
2023/03/20 10:03:40;;;;;;;3.53;3.33;;;;;;;;;;4969811;28;20305;-66
2023/03/20 10:06:12;;;;;;;3.70;3.50;;;;;;;;;;4972457;28;20066;-66
2023/03/20 10:08:38;;;;;;;3.55;3.30;;;;;;;;;;4970981;28;20041;-66
2023/03/20 10:11:37;;;;;;;4.30;4.00;;;;;;;;;;4971130;28;20494;-66
2023/03/20 10:14:16;;;;;;;4.03;3.83;;;;;;;;;;4968726;28;20442;-66
2023/03/20 10:17:20;;;;;;;3.97;3.70;;;;;;;;;;4970960;28;20106;-66
2023/03/20 10:19:55;;;;;;;4.13;3.80;;;;;;;;;;4967644;28;20039;-66
2023/03/20 10:22:41;;;;;;;4.15;3.85;;;;;;;;;;4974402;28;20034;-66
2023/03/20 10:25:21;;;;;;;3.67;3.47;;;;;;;;;;4969844;28;20458;-66
2023/03/20 10:28:05;;;;;;;3.60;3.40;;;;;;;;;;4972503;28;20115;-66
2023/03/20 10:31:13;;;;;;;4.03;3.72;;;;;;;;;;4974211;28;20497;-66
2023/03/20 10:34:00;;;;;;;3.50;3.25;;;;;;;;;;4970220;28;20070;-66
2023/03/20 10:36:45;;;;;;;3.90;3.60;;;;;;;;;;4969682;28;20093;-66
2023/03/20 10:39:29;;;;;;;3.85;3.55;;;;;;;;;;4967576;28;20822;-66
2023/03/20 10:41:59;;;;;;;3.90;3.70;;;;;;;;;;4976377;28;20034;-66
2023/03/20 10:44:39;;;;;;;3.67;3.40;;;;;;;;;;4967792;28;20043;-66
2023/03/20 10:47:08;;;;;;;3.80;3.53;;;;;;;;;;4972770;28;20061;-66
2023/03/20 10:49:40;;;;;;;3.70;3.50;;;;;;;;;;4969400;28;20362;-65
2023/03/20 10:52:15;;;;;;;3.78;3.58;;;;;;;;;;4973595;28;20066;-66
2023/03/20 10:54:44;;;;;;;3.88;3.45;;;;;;;;;;4965578;28;20113;-66
2023/03/20 10:57:21;;;;;;;4.28;3.50;;;;;;;;;;4969273;28;20486;-66
2023/03/20 10:59:52;;;;;;;3.80;3.60;;;;;;;;;;4967736;28;20451;-66
2023/03/20 11:02:20;;;;;;;3.88;3.60;;;;;;;;;;4965561;28;20306;-66
2023/03/20 11:04:46;;;;;;;3.70;3.50;;;;;;;;;;4969293;28;20038;-67
2023/03/20 11:07:32;;;;;;;3.78;3.53;;;;;;;;;;4969173;28;20034;-66
2023/03/20 11:10:03;;;;;;;3.47;3.28;;;;;;;;;;4968167;28;20034;-66
2023/03/20 11:12:35;;;;;;;4.15;3.45;;;;;;;;;;4966661;28;20491;-66
2023/03/20 11:15:18;;;;;;;4.38;4.00;;;;;;;;;;4969356;28;20037;-66
2023/03/20 11:17:51;;;;;;;3.88;3.53;;;;;;;;;;4968756;28;20570;-66
2023/03/20 11:20:16;;;;;;;3.83;3.47;;;;;;;;;;4969486;28;20074;-66
2023/03/20 11:22:42;;;;;;;3.50;3.30;;;;;;;;;;4970732;28;20074;-66
2023/03/20 11:25:22;;;;;;;3.92;3.60;;;;;;;;;;4965912;28;20049;-66
2023/03/20 11:27:48;;;;;;;3.58;3.30;;;;;;;;;;4967284;28;20332;-66
2023/03/20 11:30:17;;;;;;;3.67;3.47;;;;;;;;;;4968811;28;20774;-66
2023/03/20 11:32:48;;;;;;;3.65;3.45;;;;;;;;;;4965210;28;20180;-67
2023/03/20 11:35:32;;;;;;;4.30;3.90;;;;;;;;;;4967167;28;20049;-67
2023/03/20 11:38:15;;;;;;;4.03;3.78;;;;;;;;;;4967018;28;20031;-66
2023/03/20 11:40:41;;;;;;;3.75;3.40;;;;;;;;;;4965164;28;20042;-66
2023/03/20 11:43:21;;;;;;;3.80;3.60;;;;;;;;;;4966555;28;20042;-67
2023/03/20 11:45:49;;;;;;;4.15;3.70;;;;;;;;;;4966635;28;20041;-66
2023/03/20 11:48:23;;;;;;;4.22;3.83;;;;;;;;;;4964864;28;20058;-66
2023/03/20 11:51:00;;;;;;;5.28;4.03;;;;;;;;;;4965662;28;20035;-65
2023/03/20 11:53:37;;;;;;;4.60;4.25;;;;;;;;;;4970624;28;20070;-66
2023/03/20 11:56:12;;;;;;;4.68;4.28;;;;;;;;;;4966043;28;20035;-66
2023/03/20 11:58:54;;;;;;;4.80;4.50;;;;;;;;;;4964223;28;20039;-66
2023/03/20 12:01:21;;;;;;;4.47;4.18;;;;;;;;;;4970945;28;20349;-66
2023/03/20 12:03:54;;;;;;;5.03;4.53;;;;;;;;;;4966130;28;20534;-66
2023/03/20 12:06:52;;;;;;;5.53;4.55;;;;;;;;;;4964272;28;20118;-66
2023/03/20 12:09:27;;;;;;;5.05;4.65;;;;;;;;;;4966486;28;20038;-66
2023/03/20 12:12:15;;;;;;;5.68;5.07;;;;;;;;;;4965960;28;20035;-66
2023/03/20 12:14:52;;;;;;;5.47;4.90;;;;;;;;;;4968098;28;20092;-66
2023/03/20 12:17:45;;;;;;;5.35;4.80;;;;;;;;;;4968392;28;20262;-66
2023/03/20 12:20:29;;;;;;;6.55;5.47;;;;;;;;;;4968444;28;20412;-66
2023/03/20 12:22:55;;;;;;;5.85;4.97;;;;;;;;;;4966558;28;20050;-66
2023/03/20 12:25:24;;;;;;;5.75;5.28;;;;;;;;;;4968131;28;20406;-66
2023/03/20 12:28:13;;;;;;;6.40;5.80;;;;;;;;;;4966359;28;20038;-66
2023/03/20 12:30:48;;;;;;;;;;;;;;;;;;4966518;28;20490;-66
2023/03/20 12:33:24;;;;;;;8.07;5.30;;;;;;;;;;4962872;28;19921;-66
2023/03/20 12:35:52;;;;;;;5.88;5.38;;;;;;;;;;4965131;28;20043;-66
2023/03/20 12:38:26;;;;;;;7.43;6.78;;;;;;;;;;4965870;28;20039;-67
2023/03/20 12:40:59;;;;;;;6.60;5.90;;;;;;;;;;4963668;28;20483;-66
2023/03/20 12:43:26;;;;;;;7.15;6.20;;;;;;;;;;4965866;28;20039;-66
2023/03/20 12:46:01;;;;;;;6.93;6.20;;;;;;;;;;4965634;28;20340;-67
2023/03/20 12:48:38;;;;;;;6.95;6.25;;;;;;;;;;4969403;28;20037;-67
2023/03/20 12:51:11;;;;;;;7.00;6.35;;;;;;;;;;4963653;28;20586;-66
2023/03/20 12:54:02;;;;;;;6.93;6.30;;;;;;;;;;4967295;28;20038;-67
2023/03/20 12:56:53;;;;;;;8.65;5.75;;;;;;;;;;4969336;28;20031;-66
2023/03/20 12:59:44;;;;;;;5.85;5.20;;;;;;;;;;4963686;28;20037;-67
2023/03/20 13:02:23;;;;;;;8.48;6.13;;;;;;;;;;4964272;28;20051;-66
2023/03/20 13:05:07;;;;;;;5.93;5.30;;;;;;;;;;4964296;28;20494;-67
2023/03/20 13:07:44;;;;;;;6.20;5.60;;;;;;;;;;4965215;28;20554;-66
2023/03/20 13:10:20;;;;;;;5.63;5.13;;;;;;;;;;4966034;28;20034;-66
2023/03/20 13:13:18;;;;;;;5.60;5.00;;;;;;;;;;4965966;28;20113;-66
2023/03/20 13:16:10;;;;;;;5.78;5.22;;;;;;;;;;4965954;28;20050;-67
2023/03/20 13:18:45;;;;;;;6.13;5.18;;;;;;;;;;4964945;28;20215;-65
2023/03/20 13:21:19;;;;;;;5.32;4.82;;;;;;;;;;4966302;28;20034;-66
2023/03/20 13:24:12;;;;;;;5.45;4.95;;;;;;;;;;4962960;28;20035;-67
2023/03/20 13:26:47;;;;;;;6.03;5.10;;;;;;;;;;4964826;28;20047;-66
2023/03/20 13:29:41;;;;;;;5.95;5.45;;;;;;;;;;4965981;28;20454;-66
2023/03/20 13:32:35;;;;;;;7.47;5.20;;;;;;;;;;4960205;28;20051;-67
2023/03/20 13:35:28;;;;;;;5.78;5.18;;;;;;;;;;4966074;28;20045;-66
2023/03/20 13:37:58;;;;;;;6.03;5.43;;;;;;;;;;4968666;28;20043;-66
2023/03/20 13:40:36;;;;;;;7.53;5.35;;;;;;;;;;4967348;28;20034;-67
2023/03/20 13:43:27;;;;;;;6.57;5.45;;;;;;;;;;4968824;28;20141;-66
2023/03/20 13:46:03;;;;;;;6.38;5.07;;;;;;;;;;4968520;28;20093;-66
2023/03/20 13:48:57;;;;;;;5.78;5.28;;;;;;;;;;4968523;28;20318;-66
2023/03/20 13:51:22;;;;;;;5.53;5.00;;;;;;;;;;4967998;28;20406;-66
2023/03/20 13:53:54;;;;;;;7.90;5.38;;;;;;;;;;4969123;28;20030;-66
2023/03/20 13:56:39;;;;;;;6.78;5.70;;;;;;;;;;4964860;28;20439;-66
2023/03/20 13:59:39;;;;;;;6.85;5.18;;;;;;;;;;4983679;28;20054;-67
2023/03/20 14:02:19;;;;;;;6.65;5.22;;;;;;;;;;4971211;28;20035;-66
2023/03/20 14:04:50;;;;;;;5.68;5.10;;;;;;;;;;4975979;28;20418;-66
2023/03/20 14:07:30;;;;;;;5.38;4.88;;;;;;;;;;4973969;28;20549;-66
2023/03/20 14:09:56;;;;;;;5.50;4.90;;;;;;;;;;4967774;28;20081;-67
2023/03/20 14:12:26;;;;;;;5.63;4.85;;;;;;;;;;4967136;28;20513;-67
2023/03/20 14:14:55;;;;;;;5.80;5.30;;;;;;;;;;4968264;28;20046;-66
2023/03/20 14:17:24;;;;;;;6.13;5.38;;;;;;;;;;4968328;28;20508;-67
2023/03/20 14:19:52;;;;;;;6.93;5.38;;;;;;;;;;4967290;28;20038;-67
2023/03/20 14:22:22;;;;;;;5.68;5.18;;;;;;;;;;4966214;28;20485;-67
2023/03/20 14:25:07;;;;;;;5.97;4.93;;;;;;;;;;4964993;28;20601;-67
2023/03/20 14:27:59;;;;;;;5.90;5.00;;;;;;;;;;4967968;28;20449;-66
2023/03/20 14:30:30;;;;;;;5.70;5.18;;;;;;;;;;4966111;28;20038;-66
2023/03/20 14:33:16;;;;;;;6.85;5.40;;;;;;;;;;4966383;28;20781;-66
2023/03/20 14:35:43;;;;;;;6.20;5.60;;;;;;;;;;4967274;28;20034;-67
2023/03/20 14:38:30;;;;;;;6.88;6.18;;;;;;;;;;4974905;28;20692;-67
2023/03/20 14:41:07;;;;;;;6.78;6.10;;;;;;;;;;4966006;28;20035;-66
2023/03/20 14:43:57;;;;;;;8.40;5.72;;;;;;;;;;4971439;28;20077;-67
2023/03/20 14:46:39;;;;;;;5.50;5.00;;;;;;;;;;4967844;28;20039;-67
2023/03/20 14:49:40;;;;;;;5.63;5.13;;;;;;;;;;4968189;28;20097;-67
2023/03/20 14:52:44;;;;;;;6.75;5.28;;;;;;;;;;4968525;28;20669;-66
2023/03/20 14:55:14;;;;;;;6.47;5.22;;;;;;;;;;4928768;29;20058;-65
2023/03/20 14:57:41;;;;;;;7.22;6.55;;;;;;;;;;4930785;29;20630;-67
2023/03/20 15:00:28;;;;;;;7.13;5.75;;;;;;;;;;4932369;29;20074;-67
2023/03/20 15:03:17;;;;;;;7.25;5.13;;;;;;;;;;4931430;29;20035;-67
2023/03/20 15:05:44;;;;;;;7.72;4.88;;;;;;;;;;4915826;29;20048;-67
2023/03/20 15:08:23;;;;;;;6.28;5.40;;;;;;;;;;4917463;29;20055;-67
2023/03/20 15:10:50;;;;;;;;;;;;;;;;;;4937537;29;20039;-67
2023/03/20 15:13:17;;;;;;;6.88;5.43;;;;;;;;;;4935568;29;19915;-67
2023/03/20 15:16:10;;;;;;;6.10;5.47;;;;;;;;;;4934359;29;20050;-67
2023/03/20 15:18:37;;;;;;;5.60;5.10;;;;;;;;;;4932603;29;20167;-67
2023/03/20 15:21:09;;;;;;;6.10;5.43;;;;;;;;;;4933910;29;20324;-67
2023/03/20 15:23:34;;;;;;;5.85;4.68;;;;;;;;;;4936832;29;20039;-67